Terminal Aerodrome Forecast
Issued by NWS Charleston, WV

Current Version | Previous Version | Graphics & Text | Print | Product List | Glossary On
Versions: 1 2 3 4 5 6 7 8 9 10 11 12 13 14 15 16 17 18 19 20 21 22 23 24 25 26 27
000
FTUS41 KRLX 291400 AAB
TAFCRW
TAF AMD
KCRW 291429Z 2914/3012 00000KT 4SM -DZ BR SCT004 OVC007
     FM291600 35004KT 6SM BR HZ BKN012
     FM291800 32004KT P6SM SCT025 BKN040
     FM300500 00000KT 6SM BR SCT150
     FM300600 00000KT 5SM BR SCT150
     FM300700 00000KT 2SM BR SCT150=

USA.gov is the U.S. government's official web portal to all federal, state and local government web resources and services.